createdAt,value
2018-05-21T00:02:27.895Z,23.66
2018-05-21T00:04:57.465Z,23.67
2018-05-21T00:07:27.069Z,23.67
2018-05-21T00:09:56.637Z,23.66
2018-05-21T00:12:26.249Z,23.67
2018-05-21T00:15:11.345Z,23.65
2018-05-21T00:17:42.427Z,23.64
2018-05-21T00:20:12.784Z,23.63
2018-05-21T00:22:43.106Z,23.63
2018-05-21T00:25:13.496Z,23.61
2018-05-21T00:27:43.801Z,23.59
2018-05-21T00:30:14.936Z,23.58
2018-05-21T00:32:45.253Z,23.56
2018-05-21T00:35:14.815Z,23.53
2018-05-21T00:37:44.395Z,23.52
2018-05-21T00:40:13.973Z,23.50
2018-05-21T00:42:43.613Z,23.49
2018-05-21T00:45:13.210Z,23.48
2018-05-21T00:47:42.824Z,23.46
2018-05-21T00:50:12.378Z,23.44
2018-05-21T00:52:41.945Z,23.46
2018-05-21T00:55:37.286Z,23.45
2018-05-21T00:58:09.791Z,23.45
2018-05-21T01:00:40.129Z,23.44
2018-05-21T01:05:39.997Z,23.44
2018-05-21T01:08:09.598Z,23.44
2018-05-21T01:10:39.941Z,23.45
2018-05-21T01:13:09.522Z,23.44
2018-05-21T01:15:39.938Z,23.43
2018-05-21T01:18:09.436Z,23.44
2018-05-21T01:20:39.036Z,23.42
2018-05-21T01:23:08.593Z,23.40
2018-05-21T01:25:39.436Z,23.37
2018-05-21T01:28:09.769Z,23.35
2018-05-21T01:30:39.414Z,23.34
2018-05-21T01:33:08.977Z,23.34
2018-05-21T01:35:38.577Z,23.33
2018-05-21T01:38:08.166Z,23.33
2018-05-21T01:40:52.646Z,23.32
2018-05-21T01:43:22.218Z,23.33
2018-05-21T01:45:53.342Z,23.32
2018-05-21T01:48:22.940Z,23.31
2018-05-21T01:50:54.025Z,23.29
2018-05-21T01:53:24.655Z,23.27
2018-05-21T01:55:54.207Z,23.25
2018-05-21T01:58:23.828Z,23.21
2018-05-21T02:00:54.184Z,23.20
2018-05-21T02:03:23.770Z,23.18
2018-05-21T02:05:56.269Z,23.16
2018-05-21T02:08:26.462Z,23.14
2018-05-21T02:11:37.032Z,23.08
2018-05-21T02:14:06.637Z,23.04
2018-05-21T02:16:36.997Z,23.02
2018-05-21T02:19:06.566Z,22.98
2018-05-21T02:21:36.906Z,22.95
2018-05-21T02:24:07.229Z,22.92
2018-05-21T02:26:37.590Z,22.89
2018-05-21T02:29:07.929Z,22.86
2018-05-21T02:31:37.490Z,22.84
2018-05-21T02:34:07.834Z,22.84
2018-05-21T02:36:37.426Z,22.87
2018-05-21T02:39:08.555Z,22.88
2018-05-21T02:41:38.126Z,22.90
2018-05-21T02:44:08.382Z,22.93
2018-05-21T02:46:37.926Z,22.94
2018-05-21T02:49:07.505Z,22.93
2018-05-21T02:51:37.056Z,22.91
2018-05-21T02:54:08.933Z,22.90
2018-05-21T02:56:39.269Z,22.88
2018-05-21T02:59:08.902Z,22.87
2018-05-21T03:01:41.418Z,22.87
2018-05-21T03:04:11.069Z,22.85
2018-05-21T03:06:40.643Z,22.82
2018-05-21T03:09:10.232Z,22.80
2018-05-21T03:11:39.785Z,22.78
2018-05-21T03:14:09.346Z,22.75
2018-05-21T03:16:38.884Z,22.75
2018-05-21T03:19:08.516Z,22.72
2018-05-21T03:21:38.061Z,22.70
2018-05-21T03:24:21.764Z,22.68
2018-05-21T03:26:53.668Z,22.66
2018-05-21T03:29:23.229Z,22.63
2018-05-21T03:31:53.554Z,22.62
2018-05-21T03:34:23.109Z,22.60
2018-05-21T03:36:52.670Z,22.57
2018-05-21T03:39:22.254Z,22.56
2018-05-21T03:41:51.809Z,22.55
2018-05-21T03:44:22.141Z,22.56
2018-05-21T03:46:52.916Z,22.57
2018-05-21T03:49:23.248Z,22.57
2018-05-21T03:51:52.803Z,22.58
2018-05-21T03:54:22.455Z,22.57
2018-05-21T03:56:53.144Z,22.58
2018-05-21T03:59:47.039Z,22.58
2018-05-21T04:04:44.406Z,22.58
2018-05-21T04:07:27.346Z,22.61
2018-05-21T04:09:57.750Z,22.61
2018-05-21T04:12:27.330Z,22.59
2018-05-21T04:14:57.689Z,22.58
2018-05-21T04:17:28.013Z,22.56
2018-05-21T04:20:00.686Z,22.54
2018-05-21T04:22:31.039Z,22.53
2018-05-21T04:25:04.218Z,22.52
2018-05-21T04:27:33.810Z,22.53
2018-05-21T04:30:06.303Z,22.51
2018-05-21T04:32:36.656Z,22.53
2018-05-21T04:35:06.971Z,22.54
2018-05-21T04:37:36.597Z,22.56
2018-05-21T04:40:06.945Z,22.58
2018-05-21T04:42:37.297Z,22.60
2018-05-21T04:45:08.405Z,22.63
2018-05-21T04:47:38.746Z,22.66
2018-05-21T04:50:09.865Z,22.67
2018-05-21T04:52:39.437Z,22.68
2018-05-21T04:55:08.988Z,22.69
2018-05-21T04:57:38.560Z,22.71
2018-05-21T05:00:11.220Z,22.72
2018-05-21T05:02:43.809Z,22.72
2018-05-21T05:05:14.927Z,22.73
2018-05-21T05:07:45.250Z,22.76
2018-05-21T05:10:15.598Z,22.79
2018-05-21T05:12:45.179Z,22.82
2018-05-21T05:15:15.634Z,22.87
2018-05-21T05:17:45.184Z,22.90
2018-05-21T05:20:14.794Z,22.94
2018-05-21T05:22:44.329Z,22.97
2018-05-21T05:25:13.924Z,22.98
2018-05-21T05:27:45.009Z,23.02
2018-05-21T05:30:14.636Z,23.09
2018-05-21T05:32:44.921Z,23.22
2018-05-21T05:35:14.497Z,23.37
2018-05-21T05:37:44.085Z,23.53
2018-05-21T05:40:14.423Z,23.65
2018-05-21T05:42:44.761Z,23.76
2018-05-21T05:45:14.293Z,23.85
2018-05-21T05:47:43.876Z,23.94
2018-05-21T05:50:14.189Z,24.03
2018-05-21T05:52:43.796Z,24.11
2018-05-21T05:55:14.196Z,24.19
2018-05-21T05:57:44.541Z,24.27
2018-05-21T06:00:14.076Z,24.34
2018-05-21T06:02:44.494Z,24.41
2018-05-21T06:05:15.606Z,24.48
2018-05-21T06:07:49.429Z,24.54
2018-05-21T06:10:20.634Z,24.61
2018-05-21T06:12:50.189Z,24.66
2018-05-21T06:15:21.317Z,24.72
2018-05-21T06:17:50.885Z,24.78
2018-05-21T06:20:21.310Z,24.82
2018-05-21T06:22:50.876Z,24.87
2018-05-21T06:25:20.466Z,24.92
2018-05-21T06:27:50.837Z,24.96
2018-05-21T06:30:20.426Z,25.02
2018-05-21T06:32:49.964Z,25.05
2018-05-21T06:35:19.565Z,25.10
2018-05-21T06:37:49.129Z,25.14
2018-05-21T06:40:18.737Z,25.18
2018-05-21T06:42:48.326Z,25.23
2018-05-21T06:45:17.905Z,25.26
2018-05-21T06:47:48.432Z,25.29
2018-05-21T06:50:20.288Z,25.33
2018-05-21T06:52:49.854Z,25.37
2018-05-21T06:55:19.401Z,25.41
2018-05-21T06:57:49.738Z,25.44
2018-05-21T07:00:20.857Z,25.48
2018-05-21T07:02:51.950Z,25.52
2018-05-21T07:05:24.475Z,25.55
2018-05-21T07:07:57.063Z,25.59
2018-05-21T07:10:26.546Z,25.61
2018-05-21T07:12:56.913Z,25.64
2018-05-21T07:15:26.498Z,25.67
2018-05-21T07:17:56.089Z,25.71
2018-05-21T07:20:26.432Z,25.76
2018-05-21T07:22:56.849Z,25.79
2018-05-21T07:25:26.431Z,25.83
2018-05-21T07:27:56.070Z,25.87
2018-05-21T07:30:26.477Z,25.90
2018-05-21T07:33:08.646Z,25.93
2018-05-21T07:35:41.145Z,25.93
2018-05-21T07:38:10.711Z,25.95
2018-05-21T07:40:40.285Z,25.98
2018-05-21T07:43:10.669Z,26.01
2018-05-21T07:45:40.251Z,26.06
2018-05-21T07:48:10.564Z,26.11
2018-05-21T07:50:41.705Z,26.14
2018-05-21T07:53:11.797Z,26.18
2018-05-21T07:55:41.409Z,26.23
2018-05-21T07:58:11.185Z,26.27
2018-05-21T08:00:40.773Z,26.31
2018-05-21T08:03:11.081Z,26.35
2018-05-21T08:05:41.457Z,26.38
2018-05-21T08:08:11.025Z,26.41
2018-05-21T08:10:42.705Z,26.45
2018-05-21T08:13:12.297Z,26.47
2018-05-21T08:15:41.904Z,26.49
2018-05-21T08:18:11.471Z,26.52
2018-05-21T08:20:42.569Z,26.54
2018-05-21T08:23:12.154Z,26.56
2018-05-21T08:25:41.722Z,26.59
2018-05-21T08:28:12.061Z,26.61
2018-05-21T08:30:41.841Z,26.63
2018-05-21T08:33:10.633Z,26.64
2018-05-21T08:35:40.234Z,26.66
2018-05-21T08:38:09.821Z,26.69
2018-05-21T08:40:39.409Z,26.74
2018-05-21T08:43:08.982Z,26.76
2018-05-21T08:45:37.755Z,26.78
2018-05-21T08:48:07.332Z,26.81
2018-05-21T08:50:37.022Z,26.83
2018-05-21T08:53:06.620Z,26.85
2018-05-21T08:55:36.175Z,26.88
2018-05-21T08:58:05.780Z,26.92
2018-05-21T09:00:35.347Z,26.97
2018-05-21T09:03:04.888Z,26.99
2018-05-21T09:05:35.786Z,27.02
2018-05-21T09:08:05.358Z,27.06
2018-05-21T09:10:34.956Z,27.08
2018-05-21T09:13:03.797Z,27.11
2018-05-21T09:15:33.365Z,27.15
2018-05-21T09:18:02.918Z,27.19
2018-05-21T09:20:32.490Z,27.24
2018-05-21T09:23:02.118Z,27.27
2018-05-21T09:25:31.706Z,27.32
2018-05-21T09:28:00.493Z,27.35
2018-05-21T09:30:30.821Z,27.38
2018-05-21T09:33:00.385Z,27.42
2018-05-21T09:35:32.856Z,27.45
2018-05-21T09:38:05.427Z,27.48
2018-05-21T09:40:35.777Z,27.51
2018-05-21T09:43:07.694Z,27.54
2018-05-21T09:45:52.797Z,27.59
2018-05-21T09:48:22.953Z,27.64
2018-05-21T09:50:54.065Z,27.67
2018-05-21T09:53:24.424Z,27.70
2018-05-21T09:55:53.969Z,27.74
2018-05-21T09:58:23.549Z,27.78
2018-05-21T10:00:55.205Z,27.82
2018-05-21T10:03:24.798Z,27.86
2018-05-21T10:05:54.347Z,27.91
2018-05-21T10:08:23.923Z,27.94
2018-05-21T10:10:55.111Z,27.98
2018-05-21T10:13:24.697Z,28.02
2018-05-21T10:15:54.369Z,28.07
2018-05-21T10:18:25.433Z,28.12
2018-05-21T10:20:55.869Z,28.17
2018-05-21T10:23:26.209Z,28.21
2018-05-21T10:25:55.783Z,28.26
2018-05-21T10:28:26.129Z,28.29
2018-05-21T10:30:55.739Z,28.33
2018-05-21T10:33:25.305Z,28.37
2018-05-21T10:35:59.109Z,28.41
2018-05-21T10:38:31.757Z,28.44
2018-05-21T10:41:03.676Z,28.48
2018-05-21T10:43:34.816Z,28.52
2018-05-21T10:46:04.368Z,28.57
2018-05-21T10:48:34.845Z,28.62
2018-05-21T10:51:05.928Z,28.67
2018-05-21T10:53:37.828Z,28.72
2018-05-21T10:56:08.173Z,28.77
2018-05-21T10:58:37.753Z,28.80
2018-05-21T11:01:07.361Z,28.84
2018-05-21T11:03:37.063Z,28.89
2018-05-21T11:06:06.651Z,28.93
2018-05-21T11:08:36.222Z,28.96
2018-05-21T11:11:05.781Z,29.02
2018-05-21T11:13:35.415Z,29.06
2018-05-21T11:16:04.945Z,29.11
2018-05-21T11:18:34.554Z,29.14
2018-05-21T11:21:04.297Z,29.20
2018-05-21T11:23:33.874Z,29.26
2018-05-21T11:26:03.465Z,29.31
2018-05-21T11:28:33.049Z,29.36
2018-05-21T11:31:02.645Z,29.40
2018-05-21T11:33:32.210Z,29.45
2018-05-21T11:36:01.815Z,29.50
2018-05-21T11:38:31.951Z,29.55
2018-05-21T11:41:01.537Z,29.60
2018-05-21T11:43:31.095Z,29.65
2018-05-21T11:46:00.681Z,29.71
2018-05-21T11:48:30.247Z,29.74
2018-05-21T11:50:59.833Z,29.78
2018-05-21T11:53:29.411Z,29.83
2018-05-21T11:55:58.970Z,29.89
2018-05-21T11:58:28.537Z,29.93
2018-05-21T12:00:58.094Z,29.98
2018-05-21T12:03:27.649Z,30.02
2018-05-21T12:05:57.233Z,30.06
2018-05-21T12:08:26.794Z,30.10
2018-05-21T12:10:56.398Z,30.14
2018-05-21T12:13:25.988Z,30.19
2018-05-21T12:15:55.569Z,30.23
2018-05-21T12:18:25.129Z,30.27
2018-05-21T12:20:54.713Z,30.31
2018-05-21T12:23:24.270Z,30.36
2018-05-21T12:25:53.845Z,30.40
2018-05-21T12:28:23.415Z,30.44
2018-05-21T12:30:52.985Z,30.49
2018-05-21T12:33:23.341Z,30.54
2018-05-21T12:35:52.908Z,30.59
2018-05-21T12:38:22.520Z,30.64
2018-05-21T12:40:52.131Z,30.69
2018-05-21T12:43:20.929Z,30.73
2018-05-21T12:45:50.476Z,30.78
2018-05-21T12:48:20.070Z,30.83
2018-05-21T12:50:49.641Z,30.88
2018-05-21T12:53:19.194Z,30.92
2018-05-21T12:55:47.978Z,30.96
2018-05-21T12:58:19.114Z,31.01
2018-05-21T13:00:49.830Z,31.05
2018-05-21T13:03:19.424Z,31.10
2018-05-21T13:05:49.034Z,31.18
2018-05-21T13:08:20.178Z,31.23
2018-05-21T13:10:50.555Z,31.27
2018-05-21T13:13:20.925Z,31.32
2018-05-21T13:15:51.332Z,31.35
2018-05-21T13:18:20.910Z,31.38
2018-05-21T13:20:51.501Z,31.43
2018-05-21T13:23:21.120Z,31.46
2018-05-21T13:25:50.710Z,31.52
2018-05-21T13:28:20.253Z,31.54
2018-05-21T13:30:50.627Z,31.58
2018-05-21T13:33:20.953Z,31.61
2018-05-21T13:35:51.313Z,31.64
2018-05-21T13:38:21.076Z,31.67
2018-05-21T13:40:51.455Z,31.70
2018-05-21T13:43:21.801Z,31.74
2018-05-21T13:45:51.390Z,31.78
2018-05-21T13:48:21.738Z,31.81
2018-05-21T13:50:52.852Z,31.85
2018-05-21T13:53:22.464Z,31.87
2018-05-21T13:55:54.950Z,31.90
2018-05-21T13:58:27.449Z,31.94
2018-05-21T14:00:57.841Z,31.97
2018-05-21T14:03:28.175Z,32.01
2018-05-21T14:05:58.518Z,32.05
2018-05-21T14:08:28.146Z,32.08
2018-05-21T14:10:57.730Z,32.11
2018-05-21T14:13:28.169Z,32.15
2018-05-21T14:15:57.774Z,32.19
2018-05-21T14:18:28.125Z,32.23
2018-05-21T14:20:57.701Z,32.27
2018-05-21T14:23:28.806Z,32.30
2018-05-21T14:25:58.398Z,32.33
2018-05-21T14:28:28.709Z,32.37
2018-05-21T14:30:59.194Z,32.41
2018-05-21T14:33:28.730Z,32.45
2018-05-21T14:35:58.340Z,32.47
2018-05-21T14:38:27.972Z,32.48
2018-05-21T14:40:58.492Z,32.48
2018-05-21T14:43:28.895Z,32.51
2018-05-21T14:45:59.281Z,32.54
2018-05-21T14:48:31.218Z,32.56
2018-05-21T14:51:00.757Z,32.59
2018-05-21T14:53:33.317Z,32.61
2018-05-21T14:56:03.690Z,32.62
2018-05-21T14:58:35.564Z,32.63
2018-05-21T15:01:08.084Z,32.63
2018-05-21T15:03:37.657Z,32.65
2018-05-21T15:06:08.753Z,32.66
2018-05-21T15:08:39.097Z,32.68
2018-05-21T15:11:08.706Z,32.71
2018-05-21T15:13:39.098Z,32.74
2018-05-21T15:16:09.574Z,32.75
2018-05-21T15:18:39.144Z,32.76
2018-05-21T15:21:08.693Z,32.77
2018-05-21T15:23:39.094Z,32.79
2018-05-21T15:26:08.670Z,32.80
2018-05-21T15:28:39.751Z,32.82
2018-05-21T15:31:12.296Z,32.83
2018-05-21T15:33:42.046Z,32.85
2018-05-21T15:36:14.722Z,32.86
2018-05-21T15:38:44.185Z,32.89
2018-05-21T15:41:14.561Z,32.92
2018-05-21T15:43:44.919Z,32.93
2018-05-21T15:46:14.460Z,32.95
2018-05-21T15:48:44.114Z,32.96
2018-05-21T15:51:14.361Z,32.98
2018-05-21T15:53:43.977Z,33.00
2018-05-21T15:56:13.539Z,33.01
2018-05-21T15:58:44.408Z,33.02
2018-05-21T16:01:13.951Z,33.02
2018-05-21T16:03:43.534Z,33.03
2018-05-21T16:06:13.144Z,33.03
2018-05-21T16:08:42.796Z,33.04
2018-05-21T16:11:12.313Z,33.05
2018-05-21T16:13:42.669Z,33.07
2018-05-21T16:16:15.193Z,33.09
2018-05-21T16:18:57.311Z,33.12
2018-05-21T16:21:26.937Z,33.14
2018-05-21T16:23:56.665Z,33.16
2018-05-21T16:26:26.264Z,33.16
2018-05-21T16:28:56.588Z,33.18
2018-05-21T16:31:26.983Z,33.19
2018-05-21T16:33:56.541Z,33.21
2018-05-21T16:36:26.481Z,33.21
2018-05-21T16:38:56.078Z,33.23
2018-05-21T16:41:26.346Z,33.25
2018-05-21T16:43:55.877Z,33.27
2018-05-21T16:46:25.566Z,33.28
2018-05-21T16:48:55.095Z,33.29
2018-05-21T16:51:24.657Z,33.30
2018-05-21T16:53:54.232Z,33.30
2018-05-21T16:56:23.805Z,33.30
2018-05-21T16:58:53.405Z,33.30
2018-05-21T17:01:24.533Z,33.30
2018-05-21T17:03:54.107Z,33.30
2018-05-21T17:06:23.693Z,33.30
2018-05-21T17:08:54.885Z,33.30
2018-05-21T17:11:26.097Z,33.27
2018-05-21T17:13:56.445Z,33.20
2018-05-21T17:16:28.950Z,33.10
2018-05-21T17:19:00.049Z,33.02
2018-05-21T17:21:30.400Z,32.95
2018-05-21T17:24:00.076Z,32.86
2018-05-21T17:26:30.411Z,32.79
2018-05-21T17:28:59.991Z,32.72
2018-05-21T17:31:29.577Z,32.65
2018-05-21T17:33:59.122Z,32.59
2018-05-21T17:36:28.722Z,32.56
2018-05-21T17:38:58.316Z,32.50
2018-05-21T17:41:27.882Z,32.47
2018-05-21T17:43:57.479Z,32.44
2018-05-21T17:46:27.041Z,32.39
2018-05-21T17:48:56.649Z,32.34
2018-05-21T17:51:26.235Z,32.26
2018-05-21T17:53:57.294Z,32.18
2018-05-21T17:56:39.424Z,32.10
2018-05-21T17:59:09.027Z,32.04
2018-05-21T18:01:41.249Z,31.99
2018-05-21T18:04:22.663Z,31.93
2018-05-21T18:06:55.176Z,31.88
2018-05-21T18:09:25.580Z,31.82
2018-05-21T18:11:56.725Z,31.76
2018-05-21T18:14:26.390Z,31.67
2018-05-21T18:16:56.807Z,31.58
2018-05-21T18:19:27.049Z,31.49
2018-05-21T18:21:56.637Z,31.39
2018-05-21T18:24:26.203Z,31.32
2018-05-21T18:26:56.357Z,31.24
2018-05-21T18:29:25.918Z,31.16
2018-05-21T18:31:56.282Z,31.09
2018-05-21T18:34:27.379Z,31.00
2018-05-21T18:36:56.974Z,30.92
2018-05-21T18:39:26.608Z,30.85
2018-05-21T18:41:56.957Z,30.78
2018-05-21T18:44:26.550Z,30.69
2018-05-21T18:46:56.888Z,30.61
2018-05-21T18:49:26.482Z,30.52
2018-05-21T18:51:57.584Z,30.45
2018-05-21T18:54:30.113Z,30.38
2018-05-21T18:57:00.474Z,30.33
2018-05-21T18:59:32.524Z,30.26
2018-05-21T19:02:02.127Z,30.17
2018-05-21T19:04:32.500Z,30.10
2018-05-21T19:07:02.099Z,30.04
2018-05-21T19:09:31.729Z,29.98
2018-05-21T19:12:01.308Z,29.91
2018-05-21T19:14:32.569Z,29.85
2018-05-21T19:17:02.123Z,29.78
2018-05-21T19:19:31.677Z,29.74
2018-05-21T19:22:02.972Z,29.70
2018-05-21T19:24:32.540Z,29.65
2018-05-21T19:27:02.151Z,29.58
2018-05-21T19:29:31.720Z,29.52
2018-05-21T19:32:01.292Z,29.45
2018-05-21T19:34:30.851Z,29.40
2018-05-21T19:37:12.986Z,29.32
2018-05-21T19:39:42.648Z,29.25
2018-05-21T19:42:14.617Z,29.19
2018-05-21T19:44:44.202Z,29.14
2018-05-21T19:47:15.335Z,29.10
2018-05-21T19:49:44.919Z,29.07
2018-05-21T19:52:17.411Z,29.03
2018-05-21T19:54:46.984Z,28.99
2018-05-21T19:57:18.098Z,28.95
2018-05-21T19:59:48.464Z,28.91
2018-05-21T20:02:18.824Z,28.86
2018-05-21T20:04:48.456Z,28.81
2018-05-21T20:07:30.617Z,28.76
2018-05-21T20:10:02.578Z,28.72
2018-05-21T20:12:32.240Z,28.69
2018-05-21T20:15:01.849Z,28.65
2018-05-21T20:17:31.425Z,28.61
2018-05-21T20:20:01.745Z,28.56
2018-05-21T20:22:31.336Z,28.58
2018-05-21T20:25:00.893Z,28.70
2018-05-21T20:27:30.474Z,28.84
2018-05-21T20:30:01.072Z,28.96
2018-05-21T20:32:30.652Z,29.06
2018-05-21T20:35:00.243Z,29.14
2018-05-21T20:37:29.846Z,29.22
2018-05-21T20:39:59.458Z,29.26
2018-05-21T20:42:29.051Z,29.30
2018-05-21T20:44:58.639Z,29.35
2018-05-21T20:47:28.225Z,29.39
2018-05-21T20:49:57.036Z,29.43
2018-05-21T20:52:26.628Z,29.45
2018-05-21T20:54:56.209Z,29.43
2018-05-21T20:57:25.798Z,29.42
2018-05-21T20:59:56.131Z,29.42
2018-05-21T21:02:25.685Z,29.41
2018-05-21T21:04:56.790Z,29.41
2018-05-21T21:07:27.157Z,29.41
2018-05-21T21:09:59.079Z,29.43
2018-05-21T21:12:29.465Z,29.50
2018-05-21T21:14:59.033Z,29.56
2018-05-21T21:17:28.594Z,29.62
2018-05-21T21:19:58.959Z,29.67
2018-05-21T21:22:28.529Z,29.73
2018-05-21T21:24:58.117Z,29.78
2018-05-21T21:27:27.692Z,29.83
2018-05-21T21:29:57.300Z,29.88
2018-05-21T21:32:27.637Z,29.91
2018-05-21T21:34:57.987Z,29.95
2018-05-21T21:37:28.293Z,29.98
2018-05-21T21:39:58.687Z,30.02
2018-05-21T21:42:41.555Z,30.05
2018-05-21T21:45:11.916Z,30.07
2018-05-21T21:47:41.500Z,30.10
2018-05-21T21:50:11.078Z,30.13
2018-05-21T21:52:41.429Z,30.16
2018-05-21T21:55:13.343Z,30.17
2018-05-21T21:57:43.038Z,30.18
2018-05-21T22:00:15.553Z,30.21
2018-05-21T22:02:45.131Z,30.23
2018-05-21T22:05:15.663Z,30.24
2018-05-21T22:07:45.292Z,30.25
2018-05-21T22:10:15.726Z,30.27
2018-05-21T22:12:45.292Z,30.28
2018-05-21T22:15:14.892Z,30.28
2018-05-21T22:17:44.831Z,30.28
2018-05-21T22:20:28.073Z,30.29
2018-05-21T22:22:59.177Z,30.30
2018-05-21T22:25:28.785Z,30.32
2018-05-21T22:27:58.371Z,30.31
2018-05-21T22:30:27.976Z,30.31
2018-05-21T22:32:58.354Z,30.30
2018-05-21T22:35:27.982Z,30.29
2018-05-21T22:37:58.374Z,30.29
2018-05-21T22:40:27.989Z,30.28
2018-05-21T22:42:58.377Z,30.27
2018-05-21T22:45:31.129Z,30.28
2018-05-21T22:48:02.340Z,30.27
2018-05-21T22:50:31.857Z,30.27
2018-05-21T22:53:01.469Z,30.27
2018-05-21T22:55:31.818Z,30.28
2018-05-21T22:58:01.398Z,30.29
2018-05-21T23:00:30.971Z,30.29
2018-05-21T23:03:02.086Z,30.29
2018-05-21T23:05:31.681Z,30.30
2018-05-21T23:08:02.010Z,30.30
2018-05-21T23:10:32.350Z,30.29
2018-05-21T23:13:02.679Z,30.28
2018-05-21T23:15:33.825Z,30.26
2018-05-21T23:18:04.231Z,30.23
2018-05-21T23:20:34.585Z,30.21
2018-05-21T23:23:04.150Z,30.18
2018-05-21T23:25:33.742Z,30.17
2018-05-21T23:28:03.340Z,30.17
2018-05-21T23:30:33.002Z,30.18
2018-05-21T23:33:02.577Z,30.19
2018-05-21T23:35:32.140Z,30.21
2018-05-21T23:38:02.493Z,30.21
2018-05-21T23:40:33.592Z,30.22
2018-05-21T23:43:03.945Z,30.22
2018-05-21T23:45:46.097Z,30.24
2018-05-21T23:48:15.674Z,30.26
2018-05-21T23:50:45.209Z,30.29
2018-05-21T23:53:17.733Z,30.30
2018-05-21T23:55:47.278Z,30.31
2018-05-21T23:58:18.418Z,30.32
